Time;durP1;ratioP1;P1;durP2;ratioP2;P2;SDS_P1;SDS_P2;PMS_P1;PMS_P2;Temp;Humidity;BMP_temperature;BMP_pressure;BME280_temperature;BME280_humidity;BME280_pressure;Samples;Min_cycle;Max_cycle;Signal;HPM_P1;HPM_P2
2022/03/03 00:02:00;;;;;;;19.63;12.43;;;;;;;3.49;53.18;95806.94;4971987;28;20228;-83
2022/03/03 00:04:27;;;;;;;16.43;12.23;;;;;;;3.55;53.36;95814.06;4973140;28;20212;-83
2022/03/03 00:06:53;;;;;;;15.23;12.13;;;;;;;3.54;53.73;95809.09;4972899;28;20200;-83
2022/03/03 00:09:20;;;;;;;15.67;12.13;;;;;;;3.48;54.07;95813.75;4974748;28;20214;-83
2022/03/03 00:11:46;;;;;;;16.83;12.37;;;;;;;3.39;53.94;95813.75;4974522;28;20239;-83
2022/03/03 00:14:14;;;;;;;15.27;13.03;;;;;;;3.38;53.96;95823.09;4974875;28;20236;-83
2022/03/03 00:16:40;;;;;;;16.80;13.13;;;;;;;3.34;53.80;95826.03;4974442;28;20235;-83
2022/03/03 00:19:07;;;;;;;19.43;12.33;;;;;;;3.33;54.15;95820.13;4974763;28;20698;-83
2022/03/03 00:21:34;;;;;;;15.07;13.20;;;;;;;3.33;54.22;95824.41;4973550;28;20231;-83
2022/03/03 00:24:00;;;;;;;16.17;12.93;;;;;;;3.34;54.05;95811.56;4974733;28;20404;-83
2022/03/03 00:26:27;;;;;;;21.27;13.13;;;;;;;3.38;53.77;95810.38;4974248;28;20200;-84
2022/03/03 00:28:53;;;;;;;21.60;13.50;;;;;;;3.41;54.29;95806.78;4974762;28;20212;-83
2022/03/03 00:31:23;;;;;;;18.83;14.13;;;;;;;3.43;54.15;95802.38;4974181;28;20252;-84
2022/03/03 00:33:49;;;;;;;17.73;13.83;;;;;;;3.46;53.98;95810.53;4974532;28;20287;-83
2022/03/03 00:36:15;;;;;;;18.83;14.60;;;;;;;3.33;54.28;95814.22;4974550;28;20207;-83
2022/03/03 00:38:42;;;;;;;20.23;14.20;;;;;;;3.31;54.87;95816.91;4974692;28;20203;-84
2022/03/03 00:41:08;;;;;;;19.03;13.77;;;;;;;3.28;55.05;95814.59;4973473;28;20242;-84
2022/03/03 00:43:35;;;;;;;18.77;13.57;;;;;;;3.23;55.17;95819.28;4974086;28;20279;-83
2022/03/03 00:46:01;;;;;;;17.03;13.30;;;;;;;3.18;55.69;95825.66;4974443;28;20207;-84
2022/03/03 00:48:29;;;;;;;18.50;14.47;;;;;;;3.20;55.11;95824.63;4974714;28;20250;-83
2022/03/03 00:50:55;;;;;;;21.03;14.00;;;;;;;3.18;55.26;95823.13;4973517;28;20232;-83
2022/03/03 00:53:23;;;;;;;19.27;13.47;;;;;;;3.13;55.23;95818.41;4974013;28;20639;-83
2022/03/03 00:55:49;;;;;;;19.40;14.00;;;;;;;3.02;55.23;95815.94;4973402;28;20212;-83
2022/03/03 00:58:16;;;;;;;26.20;14.83;;;;;;;2.99;55.43;95819.53;4973191;28;20231;-84
2022/03/03 01:00:42;;;;;;;20.93;14.00;;;;;;;2.95;55.78;95818.16;4973033;28;20731;-83
2022/03/03 01:03:09;;;;;;;22.17;14.63;;;;;;;2.92;55.52;95826.03;4974141;28;20231;-83
2022/03/03 01:05:36;;;;;;;19.53;14.30;;;;;;;2.89;55.70;95823.72;4973667;28;20207;-83
2022/03/03 01:08:04;;;;;;;20.90;14.30;;;;;;;2.97;56.17;95818.03;4973607;28;20212;-83
2022/03/03 01:10:31;;;;;;;17.53;14.53;;;;;;;3.00;55.96;95812.72;4973429;28;20306;-84
2022/03/03 01:12:57;;;;;;;20.43;14.73;;;;;;;3.05;55.33;95811.41;4973698;28;20235;-83
2022/03/03 01:15:23;;;;;;;18.17;14.70;;;;;;;3.10;55.26;95804.19;4973887;28;20252;-83
2022/03/03 01:17:50;;;;;;;19.50;14.67;;;;;;;3.05;55.10;95808.88;4973416;28;20641;-83
2022/03/03 01:20:16;;;;;;;22.50;14.80;;;;;;;2.97;55.93;95811.22;4973036;28;20231;-83
2022/03/03 01:22:44;;;;;;;19.23;14.13;;;;;;;2.99;56.13;95811.91;4974061;28;20224;-83
2022/03/03 01:25:10;;;;;;;21.53;14.87;;;;;;;2.94;55.78;95806.38;4974056;28;20208;-84
2022/03/03 01:27:38;;;;;;;18.73;14.37;;;;;;;2.87;55.93;95804.47;4973840;28;20200;-83
2022/03/03 01:30:05;;;;;;;20.73;14.10;;;;;;;2.81;55.80;95805.75;4973296;28;20941;-84
2022/03/03 01:32:31;;;;;;;20.40;14.23;;;;;;;2.63;56.72;95802.97;4974053;28;20220;-84
2022/03/03 01:34:58;;;;;;;18.93;13.73;;;;;;;2.61;56.56;95804.00;4973586;28;20576;-84
2022/03/03 01:37:24;;;;;;;20.83;14.63;;;;;;;2.64;56.58;95801.22;4973386;28;20224;-84
2022/03/03 01:39:52;;;;;;;19.70;13.90;;;;;;;2.69;56.50;95797.38;4973582;28;20204;-83
2022/03/03 01:42:19;;;;;;;22.17;14.37;;;;;;;2.71;56.23;95787.09;4973327;28;20228;-83
2022/03/03 01:44:47;;;;;;;17.63;13.77;;;;;;;2.66;56.06;95792.56;4973599;28;20577;-83
2022/03/03 01:47:18;;;;;;;17.50;13.70;;;;;;;2.53;56.92;95786.81;4973707;28;20766;-83
2022/03/03 01:49:45;;;;;;;21.47;13.80;;;;;;;2.58;56.38;95776.28;4972799;28;20208;-84
2022/03/03 01:52:12;;;;;;;18.67;13.17;;;;;;;2.66;56.53;95774.75;4973433;28;20239;-84
2022/03/03 01:54:39;;;;;;;17.70;13.10;;;;;;;2.73;56.00;95778.41;4973076;28;20275;-83
2022/03/03 01:57:08;;;;;;;17.67;13.37;;;;;;;2.72;56.29;95770.91;4973375;28;20227;-83
2022/03/03 01:59:35;;;;;;;21.37;13.73;;;;;;;2.66;56.79;95764.59;4972685;28;20204;-83
2022/03/03 02:02:03;;;;;;;17.53;13.87;;;;;;;2.69;56.95;95759.25;4971768;28;20231;-84
2022/03/03 02:04:30;;;;;;;16.43;13.20;;;;;;;2.70;56.92;95763.41;4973300;28;20205;-83
2022/03/03 02:06:56;;;;;;;18.40;13.47;;;;;;;2.78;56.57;95752.63;4973161;28;20207;-83
2022/03/03 02:09:22;;;;;;;17.10;13.30;;;;;;;2.73;56.83;95752.97;4976555;28;20207;-83
2022/03/03 02:11:50;;;;;;;17.83;13.10;;;;;;;2.73;56.92;95758.06;4976129;28;20240;-83
2022/03/03 02:14:18;;;;;;;19.63;13.13;;;;;;;2.78;56.29;95750.88;4976735;28;20640;-83
2022/03/03 02:16:45;;;;;;;18.90;13.80;;;;;;;2.76;56.67;95750.19;4976650;28;20200;-83
2022/03/03 02:19:17;;;;;;;20.10;12.97;;;;;;;2.74;56.68;95752.06;4976925;28;20200;-83
2022/03/03 02:21:46;;;;;;;19.83;13.37;;;;;;;2.71;56.76;95752.31;4975967;28;20238;-83
2022/03/03 02:24:12;;;;;;;17.03;13.93;;;;;;;2.72;56.48;95748.81;4976822;28;20228;-83
2022/03/03 02:26:39;;;;;;;19.67;13.10;;;;;;;2.69;56.54;95743.22;4976396;28;20211;-83
2022/03/03 02:29:06;;;;;;;15.60;12.87;;;;;;;2.64;56.84;95748.66;4976215;28;20211;-83
2022/03/03 02:31:32;;;;;;;15.13;12.27;;;;;;;2.65;56.45;95754.56;4976109;28;20290;-83
2022/03/03 02:33:59;;;;;;;17.63;13.23;;;;;;;2.66;56.78;95751.88;4975615;28;20231;-84
2022/03/03 02:36:28;;;;;;;16.97;12.50;;;;;;;2.72;56.30;95745.47;4976764;28;20223;-83
2022/03/03 02:38:57;;;;;;;19.83;13.03;;;;;;;2.65;56.69;95749.47;4976101;28;20263;-83
2022/03/03 02:41:25;;;;;;;16.87;12.70;;;;;;;2.68;56.10;95752.56;4975845;28;20604;-83
2022/03/03 02:43:52;;;;;;;18.33;12.43;;;;;;;2.63;56.69;95751.31;4975683;28;20228;-83
2022/03/03 02:46:19;;;;;;;17.87;13.23;;;;;;;2.45;57.37;95738.38;4975894;28;20208;-83
2022/03/03 02:48:46;;;;;;;17.37;13.07;;;;;;;2.43;57.34;95740.22;4975446;28;20208;-83
2022/03/03 02:51:13;;;;;;;20.63;13.70;;;;;;;2.47;56.99;95738.25;4975178;28;20235;-83
2022/03/03 02:53:40;;;;;;;17.87;12.67;;;;;;;2.54;56.99;95741.88;4975963;28;20722;-84
2022/03/03 02:56:08;;;;;;;16.77;12.50;;;;;;;2.60;56.41;95741.41;4975826;28;20617;-84
2022/03/03 02:58:35;;;;;;;17.67;13.03;;;;;;;2.31;57.57;95736.13;4975996;28;20592;-84
2022/03/03 03:01:04;;;;;;;19.03;13.13;;;;;;;2.24;57.60;95735.00;4974828;28;20254;-85
2022/03/03 03:03:31;;;;;;;16.53;12.93;;;;;;;2.23;58.08;95749.44;4975336;28;20752;-83
2022/03/03 03:05:57;;;;;;;17.17;13.13;;;;;;;2.32;57.62;95745.34;4975657;28;20204;-83
2022/03/03 03:08:24;;;;;;;21.53;12.83;;;;;;;2.43;57.71;95732.59;4975562;28;20196;-83
2022/03/03 03:10:50;;;;;;;16.37;12.47;;;;;;;2.45;57.81;95743.44;4974379;28;20589;-82
2022/03/03 03:13:18;;;;;;;18.20;13.03;;;;;;;2.37;57.68;95741.50;4975162;28;20231;-84
2022/03/03 03:15:46;;;;;;;17.37;13.23;;;;;;;2.39;57.18;95739.66;4975529;28;20211;-82
2022/03/03 03:18:14;;;;;;;15.03;11.57;;;;;;;2.46;57.34;95739.97;4975227;28;20271;-83
2022/03/03 03:20:43;;;;;;;16.13;12.90;;;;;;;2.38;57.54;95742.31;4973247;28;20232;-83
2022/03/03 03:23:11;;;;;;;19.57;13.20;;;;;;;2.34;57.29;95738.41;4974855;28;20228;-84
2022/03/03 03:25:39;;;;;;;16.33;12.20;;;;;;;2.32;56.94;95737.72;4974759;28;20208;-83
2022/03/03 03:28:06;;;;;;;15.60;12.20;;;;;;;2.15;57.96;95738.25;4974640;28;20604;-83
2022/03/03 03:30:34;;;;;;;15.07;12.10;;;;;;;2.17;57.74;95738.94;4974096;28;20274;-83
2022/03/03 03:33:01;;;;;;;18.70;12.80;;;;;;;2.11;57.73;95735.16;4974283;28;20228;-83
2022/03/03 03:35:27;;;;;;;18.77;12.23;;;;;;;2.14;57.71;95737.44;4974710;28;20212;-83
2022/03/03 03:37:54;;;;;;;14.93;12.47;;;;;;;2.12;57.64;95741.06;4974448;28;20228;-82
2022/03/03 03:40:21;;;;;;;17.00;12.13;;;;;;;2.05;58.18;95738.19;4974221;28;20305;-84
2022/03/03 03:42:48;;;;;;;16.50;12.27;;;;;;;2.04;57.72;95736.56;4974614;28;20231;-83
2022/03/03 03:45:15;;;;;;;17.13;12.47;;;;;;;2.11;58.02;95725.00;4974736;28;20214;-82
2022/03/03 03:47:43;;;;;;;15.43;11.67;;;;;;;2.16;57.75;95722.09;4975094;28;20207;-83
2022/03/03 03:50:12;;;;;;;15.50;12.27;;;;;;;2.15;57.89;95726.34;4974105;28;20227;-82
2022/03/03 03:52:40;;;;;;;19.00;11.80;;;;;;;2.07;57.92;95718.56;4974745;28;20277;-82
2022/03/03 03:55:09;;;;;;;17.77;12.30;;;;;;;2.05;57.76;95712.78;4975025;28;20204;-82
2022/03/03 03:57:36;;;;;;;15.17;12.30;;;;;;;1.97;58.01;95721.00;4974694;28;20224;-82
2022/03/03 04:00:05;;;;;;;16.53;12.33;;;;;;;1.97;58.06;95713.38;4973702;28;20258;-83
2022/03/03 04:02:32;;;;;;;14.20;11.33;;;;;;;1.85;58.17;95708.47;4974525;28;20224;-83
2022/03/03 04:05:00;;;;;;;14.73;12.20;;;;;;;1.75;58.81;95708.38;4974109;28;20572;-83
2022/03/03 04:07:26;;;;;;;16.17;12.13;;;;;;;1.84;58.37;95697.50;4974169;28;20219;-83
2022/03/03 04:09:52;;;;;;;14.93;11.47;;;;;;;1.93;57.96;95693.41;4973178;28;20219;-83
2022/03/03 04:12:19;;;;;;;17.43;11.83;;;;;;;1.96;57.65;95685.56;4973728;28;20243;-82
2022/03/03 04:14:45;;;;;;;14.20;11.60;;;;;;;1.99;58.00;95698.03;4974355;28;20212;-84
2022/03/03 04:17:12;;;;;;;15.77;12.57;;;;;;;2.02;57.61;95702.88;4973753;28;20211;-83
2022/03/03 04:19:38;;;;;;;16.10;12.00;;;;;;;2.03;57.78;95701.94;4974710;28;20643;-83
2022/03/03 04:22:06;;;;;;;14.70;12.27;;;;;;;2.03;57.73;95701.94;4973141;28;20235;-83
2022/03/03 04:24:33;;;;;;;17.10;11.70;;;;;;;1.97;57.92;95700.69;4973967;28;20204;-83
2022/03/03 04:26:59;;;;;;;16.77;11.93;;;;;;;1.94;57.58;95695.84;4973672;28;20613;-83
2022/03/03 04:29:26;;;;;;;14.73;11.60;;;;;;;1.94;58.02;95695.84;4973884;28;20233;-85
2022/03/03 04:31:53;;;;;;;14.67;12.20;;;;;;;1.97;57.90;95694.78;5017267;23;20754;-84
2022/03/03 04:34:20;;;;;;;14.47;11.90;;;;;;;1.98;57.83;95686.25;5053826;28;20247;-84
2022/03/03 04:36:46;;;;;;;14.93;11.67;;;;;;;1.99;57.43;95690.41;5052809;28;20209;-84
2022/03/03 04:39:14;;;;;;;16.07;11.20;;;;;;;2.03;57.64;95684.97;5053123;28;20271;-85
2022/03/03 04:41:41;;;;;;;17.03;11.83;;;;;;;2.05;57.61;95687.41;5051934;28;20233;-85
2022/03/03 04:44:07;;;;;;;12.73;10.43;;;;;;;2.05;57.28;95690.75;5052748;28;20209;-85
2022/03/03 04:46:34;;;;;;;13.30;11.33;;;;;;;2.03;57.68;95687.50;5052704;28;20202;-86
2022/03/03 04:49:01;;;;;;;14.23;11.73;;;;;;;2.01;57.53;95694.44;5052158;28;20569;-83
2022/03/03 04:51:28;;;;;;;14.37;11.27;;;;;;;1.92;57.90;95691.84;5051343;28;20236;-85
2022/03/03 04:53:55;;;;;;;12.80;10.73;;;;;;;1.92;57.58;95691.84;5052527;28;20575;-83
2022/03/03 04:56:23;;;;;;;15.30;11.20;;;;;;;1.90;57.76;95691.16;5052649;28;20198;-84
2022/03/03 04:58:49;;;;;;;15.93;11.57;;;;;;;1.82;58.07;95698.56;5059298;28;20288;-84
2022/03/03 05:01:16;;;;;;;13.13;10.80;;;;;;;1.85;57.83;95696.59;5071100;28;20299;-85
2022/03/03 05:03:42;;;;;;;13.80;10.97;;;;;;;1.79;57.69;95694.50;5072424;28;20216;-85
2022/03/03 05:06:09;;;;;;;12.80;11.17;;;;;;;1.66;58.08;95698.94;5072281;28;20222;-85
2022/03/03 05:08:35;;;;;;;14.13;10.73;;;;;;;1.69;57.82;95694.44;5071977;28;20200;-83
2022/03/03 05:11:02;;;;;;;16.67;11.23;;;;;;;1.70;57.93;95696.06;5071393;28;20315;-85
2022/03/03 05:13:30;;;;;;;13.17;10.73;;;;;;;1.62;58.11;95700.09;5072467;28;20271;-85
2022/03/03 05:15:56;;;;;;;17.47;11.10;;;;;;;1.62;57.93;95689.94;5072804;28;20201;-85
2022/03/03 05:18:23;;;;;;;14.23;11.23;;;;;;;1.47;58.18;95698.75;5072421;28;20220;-84
2022/03/03 05:20:49;;;;;;;14.53;10.37;;;;;;;1.38;58.42;95692.66;5071337;28;20240;-85
2022/03/03 05:23:16;;;;;;;13.60;11.37;;;;;;;1.33;58.76;95689.69;5071637;28;20839;-85
2022/03/03 05:25:42;;;;;;;17.10;11.13;;;;;;;1.29;58.73;95678.16;5073034;28;20204;-84
2022/03/03 05:28:09;;;;;;;12.83;10.30;;;;;;;1.36;58.82;95675.00;5073154;28;20196;-85
2022/03/03 05:30:37;;;;;;;11.47;10.13;;;;;;;1.38;59.60;95678.22;5071543;28;20224;-83
2022/03/03 05:33:04;;;;;;;12.90;10.70;;;;;;;1.45;59.70;95670.16;5072309;28;20228;-85
2022/03/03 05:35:31;;;;;;;12.20;10.33;;;;;;;1.46;59.61;95664.97;5072524;28;20240;-84
2022/03/03 05:37:57;;;;;;;13.80;9.70;;;;;;;1.56;58.87;95665.03;5071795;28;20204;-86
2022/03/03 05:40:24;;;;;;;13.50;10.70;;;;;;;1.57;59.54;95659.84;5071675;28;20329;-82
2022/03/03 05:42:50;;;;;;;15.20;10.27;;;;;;;1.54;59.80;95660.09;5072900;28;20224;-83
2022/03/03 05:45:17;;;;;;;19.33;10.30;;;;;;;1.59;58.67;95652.94;5063022;28;20205;-84
2022/03/03 05:47:46;;;;;;;15.37;11.53;;;;;;;1.64;58.81;95661.00;5056772;28;20205;-82
2022/03/03 05:50:13;;;;;;;17.13;10.53;;;;;;;1.66;59.33;95653.25;5055257;28;20739;-84
2022/03/03 05:52:39;;;;;;;13.00;10.40;;;;;;;1.64;60.39;95666.06;5056031;28;20221;-85
2022/03/03 05:55:06;;;;;;;14.17;11.23;;;;;;;1.69;58.48;95656.38;5056759;28;20208;-82
2022/03/03 05:57:36;;;;;;;15.13;10.80;;;;;;;1.69;58.28;95651.31;5056101;28;20213;-85
2022/03/03 06:00:07;;;;;;;14.87;11.30;;;;;;;1.66;58.43;95648.19;5072033;28;20254;-81
2022/03/03 06:02:35;;;;;;;16.10;10.80;;;;;;;1.70;57.72;95654.66;5076561;28;20221;-84
2022/03/03 06:05:04;;;;;;;10.97;9.30;;;;;;;1.68;58.12;95656.50;5075777;28;20200;-85
2022/03/03 06:07:33;;;;;;;12.90;8.77;;;;;;;1.71;58.73;95648.66;5076027;28;20213;-81
2022/03/03 06:10:03;;;;;;;11.30;9.97;;;;;;;1.74;58.05;95644.09;5074883;28;20229;-85
2022/03/03 06:12:40;;;;;;;12.10;9.60;;;;;;;1.81;58.12;95652.06;5075986;28;20711;-83
2022/03/03 06:15:07;;;;;;;12.03;9.60;;;;;;;1.83;58.00;95654.47;5075948;28;20204;-84
2022/03/03 06:17:34;;;;;;;12.47;9.67;;;;;;;1.80;58.35;95650.44;5075574;28;20667;-82
2022/03/03 06:20:05;;;;;;;13.73;9.83;;;;;;;1.74;58.55;95651.72;5075127;28;20277;-83
2022/03/03 06:22:32;;;;;;;11.17;9.47;;;;;;;1.76;58.91;95655.88;5075163;28;20217;-84
2022/03/03 06:24:59;;;;;;;15.50;9.80;;;;;;;1.84;58.51;95656.09;5075515;28;20607;-82
2022/03/03 06:27:26;;;;;;;15.53;9.47;;;;;;;1.90;58.70;95656.41;5075761;28;20205;-83
2022/03/03 06:29:55;;;;;;;15.87;10.20;;;;;;;1.99;58.07;95653.13;5074687;28;20703;-83
2022/03/03 06:32:22;;;;;;;13.47;9.50;;;;;;;2.14;57.91;95640.94;5074142;28;20243;-84
2022/03/03 06:34:48;;;;;;;16.63;10.00;;;;;;;2.31;57.63;95642.91;5075005;28;20205;-83
2022/03/03 06:37:16;;;;;;;12.37;9.67;;;;;;;2.63;56.80;95639.50;5075236;28;20205;-83
2022/03/03 06:39:42;;;;;;;11.17;9.07;;;;;;;2.88;56.39;95634.00;5073212;28;20216;-84
2022/03/03 06:42:09;;;;;;;13.17;9.63;;;;;;;3.17;56.03;95628.19;5075138;28;20223;-84
2022/03/03 06:44:35;;;;;;;13.20;10.07;;;;;;;3.45;55.35;95623.16;5067855;28;20552;-84
2022/03/03 06:47:02;;;;;;;12.63;9.93;;;;;;;3.71;54.95;95625.19;5054834;28;20220;-83
2022/03/03 06:49:31;;;;;;;11.23;9.43;;;;;;;3.93;54.49;95616.47;5054853;28;20205;-84
2022/03/03 06:51:58;;;;;;;13.13;10.10;;;;;;;4.21;53.94;95614.84;5053996;28;20301;-84
2022/03/03 06:54:26;;;;;;;11.00;9.80;;;;;;;4.42;53.52;95611.19;5054818;28;20201;-84
2022/03/03 06:56:55;;;;;;;16.57;9.60;;;;;;;4.59;52.69;95614.75;5055309;28;20251;-83
2022/03/03 06:59:24;;;;;;;10.23;9.13;;;;;;;4.81;52.48;95619.50;5065955;28;20275;-82
2022/03/03 07:01:52;;;;;;;13.07;10.27;;;;;;;4.97;52.41;95618.13;5074393;28;20236;-85
2022/03/03 07:04:19;;;;;;;14.97;9.67;;;;;;;5.12;51.67;95621.78;5075548;28;20711;-84
2022/03/03 07:06:47;;;;;;;12.60;9.97;;;;;;;5.39;51.55;95615.84;5074908;28;20196;-82
2022/03/03 07:09:14;;;;;;;20.60;11.07;;;;;;;5.55;51.13;95604.06;5074510;28;20212;-84
2022/03/03 07:11:43;;;;;;;12.30;10.40;;;;;;;5.70;50.56;95601.00;5073472;28;20255;-83
2022/03/03 07:14:10;;;;;;;16.80;10.63;;;;;;;5.89;50.06;95606.81;5074650;28;20457;-85
2022/03/03 07:16:41;;;;;;;22.23;10.93;;;;;;;6.06;49.80;95602.63;5074750;28;20197;-83
2022/03/03 07:19:17;;;;;;;19.20;11.80;;;;;;;6.17;49.54;95606.69;5074396;28;20228;-81
2022/03/03 07:21:59;;;;;;;12.30;10.30;;;;;;;6.29;49.55;95597.84;5073944;28;20228;-82
2022/03/03 07:24:30;;;;;;;12.77;10.43;;;;;;;6.38;49.25;95596.94;5074793;28;20205;-83
2022/03/03 07:27:00;;;;;;;11.50;9.67;;;;;;;6.44;49.13;95593.78;5075801;28;20205;-84
2022/03/03 07:29:34;;;;;;;14.27;10.10;;;;;;;6.63;48.85;95589.41;5076011;28;20192;-84
2022/03/03 07:32:06;;;;;;;13.67;9.97;;;;;;;6.83;48.28;95590.78;5073916;28;20227;-81
2022/03/03 07:34:34;;;;;;;10.67;9.63;;;;;;;7.02;48.02;95582.06;5074397;28;20201;-81
2022/03/03 07:37:05;;;;;;;12.93;9.90;;;;;;;7.08;47.86;95581.47;5074437;28;20205;-82
2022/03/03 07:39:39;;;;;;;12.90;10.33;;;;;;;7.27;47.32;95576.06;5074946;28;20225;-84
2022/03/03 07:42:11;;;;;;;14.97;9.60;;;;;;;7.49;46.59;95572.13;5073727;28;20693;-84
2022/03/03 07:44:40;;;;;;;15.20;10.77;;;;;;;7.65;46.35;95566.22;5066874;28;20581;-84
2022/03/03 07:47:07;;;;;;;14.27;10.37;;;;;;;7.79;46.09;95560.44;5054135;28;20204;-85
2022/03/03 07:49:34;;;;;;;12.50;10.40;;;;;;;8.01;46.00;95566.69;5053638;28;20198;-83
2022/03/03 07:52:03;;;;;;;15.67;10.17;;;;;;;8.19;44.83;95575.03;5053351;28;20229;-81
2022/03/03 07:54:29;;;;;;;12.97;10.23;;;;;;;8.46;44.78;95572.16;5052932;28;20231;-84
2022/03/03 07:56:58;;;;;;;13.57;10.37;;;;;;;8.69;44.57;95571.41;5053506;28;20201;-83
2022/03/03 07:59:29;;;;;;;12.13;10.37;;;;;;;8.71;44.23;95564.38;5064482;28;20217;-85
2022/03/03 08:01:56;;;;;;;15.00;9.90;;;;;;;8.85;43.75;95561.91;5073000;28;20233;-83
2022/03/03 08:04:28;;;;;;;11.13;9.70;;;;;;;9.25;43.51;95576.34;5073263;28;20355;-82
2022/03/03 08:06:57;;;;;;;11.20;9.83;;;;;;;9.47;42.97;95581.69;5072859;28;20216;-85
2022/03/03 08:09:25;;;;;;;11.20;10.00;;;;;;;9.59;42.56;95588.84;5073546;28;20259;-86
2022/03/03 08:11:54;;;;;;;11.63;9.90;;;;;;;9.70;42.34;95601.31;5072931;28;20240;-83
2022/03/03 08:14:21;;;;;;;12.80;9.83;;;;;;;9.91;42.38;95602.47;5072885;28;20201;-82
2022/03/03 08:16:49;;;;;;;11.93;10.37;;;;;;;9.92;41.91;95602.28;5073800;28;20296;-82
2022/03/03 08:19:17;;;;;;;12.93;9.73;;;;;;;10.07;42.06;95597.19;5073148;28;20227;-83
2022/03/03 08:21:45;;;;;;;14.10;10.30;;;;;;;10.25;42.18;95592.56;5072555;28;20236;-85
2022/03/03 08:24:15;;;;;;;13.13;10.13;;;;;;;10.41;41.85;95596.75;5072771;28;20208;-84
2022/03/03 08:26:43;;;;;;;15.20;9.63;;;;;;;10.57;41.64;95596.63;5073395;28;20284;-84
2022/03/03 08:29:12;;;;;;;10.77;9.37;;;;;;;10.66;41.26;95599.91;5073400;28;20675;-85
2022/03/03 08:31:40;;;;;;;11.07;9.73;;;;;;;10.90;41.02;95597.09;5071649;28;20235;-83
2022/03/03 08:34:16;;;;;;;11.17;9.60;;;;;;;11.17;40.42;95579.38;5072817;28;20694;-83
2022/03/03 08:36:47;;;;;;;12.50;10.40;;;;;;;10.94;40.04;95580.31;5072882;28;20203;-85
2022/03/03 08:39:17;;;;;;;9.93;8.90;;;;;;;11.22;39.26;95577.88;5072187;28;20224;-84
2022/03/03 08:41:44;;;;;;;12.43;9.10;;;;;;;11.46;38.31;95581.09;5072194;28;20235;-85
2022/03/03 08:44:13;;;;;;;11.37;9.80;;;;;;;11.71;38.27;95577.22;5068093;28;20201;-81
2022/03/03 08:46:42;;;;;;;13.53;9.40;;;;;;;11.98;38.82;95570.53;5052871;28;20202;-85
2022/03/03 08:49:14;;;;;;;12.43;10.20;;;;;;;12.20;37.70;95564.38;5052441;28;20205;-82
2022/03/03 08:51:42;;;;;;;13.63;10.23;;;;;;;12.10;37.89;95575.03;5051213;28;20241;-85
2022/03/03 08:54:11;;;;;;;12.37;10.60;;;;;;;12.07;38.34;95575.41;5051647;28;20292;-82
2022/03/03 08:56:37;;;;;;;12.73;10.27;;;;;;;12.24;37.92;95560.44;5052066;28;20197;-84
2022/03/03 08:59:03;;;;;;;12.07;10.77;;;;;;;12.03;36.75;95563.03;5060761;28;20204;-85
2022/03/03 09:01:30;;;;;;;13.33;11.93;;;;;;;12.08;37.45;95556.34;5071422;28;20278;-82
2022/03/03 09:03:58;;;;;;;15.17;11.07;;;;;;;12.03;36.63;95556.09;5072687;28;20208;-82
2022/03/03 09:06:26;;;;;;;14.57;11.03;;;;;;;12.26;36.70;95547.34;5072334;28;20239;-82
2022/03/03 09:08:53;;;;;;;12.87;10.37;;;;;;;12.15;36.25;95547.84;5072704;28;20213;-82
2022/03/03 09:11:20;;;;;;;11.73;10.50;;;;;;;12.37;36.38;95539.88;5070078;28;20704;-85
2022/03/03 09:13:46;;;;;;;10.83;9.80;;;;;;;12.63;36.00;95544.41;5072590;28;20232;-85
2022/03/03 09:16:13;;;;;;;13.03;10.00;;;;;;;12.79;35.65;95531.19;5071739;28;20227;-83
2022/03/03 09:18:40;;;;;;;11.13;10.03;;;;;;;12.99;35.17;95527.91;5071100;28;20237;-86
2022/03/03 09:21:06;;;;;;;12.17;10.80;;;;;;;12.21;36.07;95527.25;5071481;28;20233;-84
2022/03/03 09:23:34;;;;;;;13.63;10.73;;;;;;;11.89;36.60;95536.34;5072089;28;20220;-85
2022/03/03 09:26:00;;;;;;;13.43;10.53;;;;;;;12.24;36.34;95534.63;5072454;28;20576;-83
2022/03/03 09:28:27;;;;;;;16.83;11.70;;;;;;;12.46;35.87;95530.22;5071796;28;20208;-84
2022/03/03 09:30:56;;;;;;;11.73;10.50;;;;;;;12.56;36.14;95528.06;5071444;28;20232;-82
2022/03/03 09:33:23;;;;;;;13.83;11.60;;;;;;;12.86;36.22;95531.22;5071878;28;20263;-85
2022/03/03 09:35:50;;;;;;;13.37;11.17;;;;;;;13.12;35.69;95535.69;5072049;28;20200;-84
2022/03/03 09:38:16;;;;;;;14.13;11.73;;;;;;;13.38;35.91;95530.66;5072022;28;20212;-85
2022/03/03 09:40:45;;;;;;;12.33;11.03;;;;;;;13.50;35.83;95533.47;5071425;28;20241;-85
2022/03/03 09:43:12;;;;;;;16.50;12.00;;;;;;;13.66;36.00;95535.69;5071069;28;20421;-83
2022/03/03 09:45:39;;;;;;;13.70;12.10;;;;;;;13.41;35.78;95532.84;5053901;28;20205;-84
2022/03/03 09:48:07;;;;;;;13.60;12.20;;;;;;;13.42;35.54;95539.63;5050075;28;20198;-84
2022/03/03 09:50:35;;;;;;;19.30;12.80;;;;;;;13.10;35.25;95537.69;5049938;28;20282;-83
2022/03/03 09:53:06;;;;;;;16.70;12.87;;;;;;;13.29;35.46;95544.75;5050496;28;20221;-82
2022/03/03 09:55:32;;;;;;;15.03;12.83;;;;;;;13.45;35.78;95533.28;5050404;28;20213;-84
2022/03/03 09:58:03;;;;;;;15.97;12.17;;;;;;;13.59;35.46;95532.31;5050397;28;20692;-83
2022/03/03 10:00:33;;;;;;;15.90;12.43;;;;;;;13.65;35.09;95530.72;5029588;28;20229;-82
2022/03/03 10:03:08;;;;;;;17.83;12.07;;;;;;;13.63;34.87;95537.88;5030871;28;20264;-82
2022/03/03 10:05:37;;;;;;;16.03;12.07;;;;;;;13.45;34.78;95534.06;5030768;28;20225;-84
2022/03/03 10:08:06;;;;;;;16.43;12.13;;;;;;;13.57;36.11;95533.50;5031072;28;20202;-82
2022/03/03 10:10:33;;;;;;;13.57;12.17;;;;;;;13.59;35.75;95528.91;5029631;28;20721;-81
2022/03/03 10:13:05;;;;;;;15.37;12.77;;;;;;;13.66;35.27;95532.31;5030967;28;20229;-84
2022/03/03 10:15:33;;;;;;;15.83;13.07;;;;;;;13.75;35.25;95534.50;5032455;28;20202;-84
2022/03/03 10:18:06;;;;;;;14.50;13.10;;;;;;;13.83;35.58;95536.94;5032981;28;20278;-84
2022/03/03 10:20:38;;;;;;;14.27;12.73;;;;;;;13.67;34.16;95536.47;5032677;28;20288;-83
2022/03/03 10:23:08;;;;;;;14.63;12.57;;;;;;;13.63;35.01;95533.50;5032809;28;20774;-83
2022/03/03 10:25:37;;;;;;;15.43;13.20;;;;;;;13.56;34.24;95531.88;5033262;28;20696;-81
2022/03/03 10:28:11;;;;;;;14.37;12.77;;;;;;;13.69;34.36;95529.31;5033341;28;20205;-82
2022/03/03 10:30:48;;;;;;;14.03;12.17;;;;;;;13.53;33.60;95525.31;5035954;28;20226;-83
2022/03/03 10:33:16;;;;;;;13.20;11.80;;;;;;;13.62;34.02;95523.34;5036745;28;20272;-84
2022/03/03 10:35:42;;;;;;;12.07;10.73;;;;;;;13.72;33.61;95524.56;5036020;28;20209;-81
2022/03/03 10:38:08;;;;;;;11.93;10.83;;;;;;;13.63;33.49;95522.38;5035685;28;20803;-84
2022/03/03 10:40:39;;;;;;;12.77;11.50;;;;;;;13.34;33.70;95521.69;5034801;28;20230;-82
2022/03/03 10:43:05;;;;;;;12.33;11.03;;;;;;;13.24;34.26;95525.66;5035853;28;20225;-85
2022/03/03 10:45:35;;;;;;;11.23;10.13;;;;;;;13.16;31.85;95521.44;5051128;28;20209;-83
2022/03/03 10:48:04;;;;;;;11.57;10.00;;;;;;;12.90;31.93;95509.16;5055085;28;20205;-83
2022/03/03 10:50:45;;;;;;;10.10;9.10;;;;;;;12.98;32.15;95514.19;5054526;28;20256;-85
2022/03/03 10:53:11;;;;;;;9.17;8.23;;;;;;;12.92;30.42;95506.38;5055075;28;20263;-82
2022/03/03 10:55:38;;;;;;;9.90;8.90;;;;;;;12.61;30.54;95504.28;5054742;28;20256;-84
2022/03/03 10:58:06;;;;;;;12.93;9.57;;;;;;;12.44;31.43;95506.38;5055273;28;20224;-83
2022/03/03 11:00:36;;;;;;;10.27;9.27;;;;;;;12.58;31.49;95496.91;5074197;28;20240;-82
2022/03/03 11:03:04;;;;;;;12.13;9.80;;;;;;;12.59;32.02;95490.75;5074605;28;20226;-83
2022/03/03 11:05:32;;;;;;;11.03;9.70;;;;;;;12.43;30.92;95490.06;5075611;28;20699;-81
2022/03/03 11:07:59;;;;;;;10.03;9.03;;;;;;;12.09;30.26;95488.28;5075760;28;20204;-85
2022/03/03 11:10:27;;;;;;;9.70;8.70;;;;;;;12.17;30.81;95486.50;5074621;28;20231;-82
2022/03/03 11:12:55;;;;;;;8.53;7.73;;;;;;;12.52;29.75;95488.13;5074515;28;20221;-81
2022/03/03 11:15:25;;;;;;;9.33;8.40;;;;;;;12.66;28.99;95476.88;5075240;28;20215;-84
2022/03/03 11:17:55;;;;;;;11.07;7.70;;;;;;;13.06;29.99;95472.66;5074674;28;20196;-83
2022/03/03 11:20:21;;;;;;;8.40;7.60;;;;;;;13.25;29.15;95476.34;5073906;28;20255;-84
2022/03/03 11:22:53;;;;;;;11.00;7.37;;;;;;;13.38;27.79;95472.97;5090113;23;20696;-81
2022/03/03 11:25:27;;;;;;;7.60;6.80;;;;;;;13.41;27.44;95470.78;5054557;28;20209;-81
2022/03/03 11:28:02;;;;;;;7.70;7.00;;;;;;;13.48;27.04;95460.44;5053852;28;20193;-81